sensor_id;sensor_type;location;lat;lon;timestamp;temperature;humidity
9237;DHT22;24579;42.810;23.214;2022-09-09T00:01:28;17.00;99.90
9237;DHT22;24579;42.810;23.214;2022-09-09T00:04:05;16.90;99.90
9237;DHT22;24579;42.810;23.214;2022-09-09T00:06:42;16.50;99.90
9237;DHT22;24579;42.810;23.214;2022-09-09T00:09:12;16.60;99.90
9237;DHT22;24579;42.810;23.214;2022-09-09T00:11:47;16.60;99.90
9237;DHT22;24579;42.810;23.214;2022-09-09T00:14:21;16.90;99.90
9237;DHT22;24579;42.810;23.214;2022-09-09T00:16:53;17.10;99.90
9237;DHT22;24579;42.810;23.214;2022-09-09T00:19:24;17.20;99.90
9237;DHT22;24579;42.810;23.214;2022-09-09T00:22:08;17.20;99.90
9237;DHT22;24579;42.810;23.214;2022-09-09T00:24:44;17.20;99.90
9237;DHT22;24579;42.810;23.214;2022-09-09T00:27:18;17.20;99.90
9237;DHT22;24579;42.810;23.214;2022-09-09T00:29:50;17.20;99.90
9237;DHT22;24579;42.810;23.214;2022-09-09T00:32:20;17.00;99.90
9237;DHT22;24579;42.810;23.214;2022-09-09T00:34:49;17.00;99.90
9237;DHT22;24579;42.810;23.214;2022-09-09T00:37:19;17.00;99.90
9237;DHT22;24579;42.810;23.214;2022-09-09T00:39:48;17.00;99.90
9237;DHT22;24579;42.810;23.214;2022-09-09T00:42:22;17.00;99.90
9237;DHT22;24579;42.810;23.214;2022-09-09T00:44:53;17.00;99.90
9237;DHT22;24579;42.810;23.214;2022-09-09T00:47:49;17.00;99.90
9237;DHT22;24579;42.810;23.214;2022-09-09T00:50:35;16.90;99.90
9237;DHT22;24579;42.810;23.214;2022-09-09T00:53:17;16.90;99.90
9237;DHT22;24579;42.810;23.214;2022-09-09T00:55:51;16.90;99.90
9237;DHT22;24579;42.810;23.214;2022-09-09T00:58:21;16.50;99.90
9237;DHT22;24579;42.810;23.214;2022-09-09T01:00:51;16.30;99.90
9237;DHT22;24579;42.810;23.214;2022-09-09T01:03:31;16.30;99.90
9237;DHT22;24579;42.810;23.214;2022-09-09T01:06:02;16.30;99.90
9237;DHT22;24579;42.810;23.214;2022-09-09T01:08:43;16.20;99.90
9237;DHT22;24579;42.810;23.214;2022-09-09T01:11:21;16.10;99.90
9237;DHT22;24579;42.810;23.214;2022-09-09T01:13:54;16.30;99.90
9237;DHT22;24579;42.810;23.214;2022-09-09T01:16:25;16.50;99.90
9237;DHT22;24579;42.810;23.214;2022-09-09T01:18:53;16.60;99.90
9237;DHT22;24579;42.810;23.214;2022-09-09T01:21:30;16.50;99.90
9237;DHT22;24579;42.810;23.214;2022-09-09T01:24:14;16.50;99.90
9237;DHT22;24579;42.810;23.214;2022-09-09T01:26:45;16.60;99.90
9237;DHT22;24579;42.810;23.214;2022-09-09T01:29:14;16.50;99.90
9237;DHT22;24579;42.810;23.214;2022-09-09T01:31:52;16.50;99.90
9237;DHT22;24579;42.810;23.214;2022-09-09T01:34:20;16.50;99.90
9237;DHT22;24579;42.810;23.214;2022-09-09T01:36:52;16.30;99.90
9237;DHT22;24579;42.810;23.214;2022-09-09T01:39:20;16.20;99.90
9237;DHT22;24579;42.810;23.214;2022-09-09T01:41:49;16.10;99.90
9237;DHT22;24579;42.810;23.214;2022-09-09T01:44:16;15.60;99.90
9237;DHT22;24579;42.810;23.214;2022-09-09T01:46:44;15.50;99.90
9237;DHT22;24579;42.810;23.214;2022-09-09T01:49:11;15.30;99.90
9237;DHT22;24579;42.810;23.214;2022-09-09T01:51:39;15.20;99.90
9237;DHT22;24579;42.810;23.214;2022-09-09T01:54:08;15.30;99.90
9237;DHT22;24579;42.810;23.214;2022-09-09T01:56:40;15.10;99.90
9237;DHT22;24579;42.810;23.214;2022-09-09T01:59:23;15.60;99.90
9237;DHT22;24579;42.810;23.214;2022-09-09T02:01:58;15.70;99.90
9237;DHT22;24579;42.810;23.214;2022-09-09T02:04:36;15.90;99.90
9237;DHT22;24579;42.810;23.214;2022-09-09T02:07:14;15.80;99.90
9237;DHT22;24579;42.810;23.214;2022-09-09T02:09:44;15.20;99.90
9237;DHT22;24579;42.810;23.214;2022-09-09T02:12:15;15.40;99.90
9237;DHT22;24579;42.810;23.214;2022-09-09T02:14:50;15.60;99.90
9237;DHT22;24579;42.810;23.214;2022-09-09T02:17:21;15.70;99.90
9237;DHT22;24579;42.810;23.214;2022-09-09T02:19:54;15.60;99.90
9237;DHT22;24579;42.810;23.214;2022-09-09T02:22:26;15.70;99.90
9237;DHT22;24579;42.810;23.214;2022-09-09T02:24:56;15.50;99.90
9237;DHT22;24579;42.810;23.214;2022-09-09T02:27:26;15.60;99.90
9237;DHT22;24579;42.810;23.214;2022-09-09T02:29:56;15.20;99.90
9237;DHT22;24579;42.810;23.214;2022-09-09T02:32:24;15.40;99.90
9237;DHT22;24579;42.810;23.214;2022-09-09T02:34:55;15.40;99.90
9237;DHT22;24579;42.810;23.214;2022-09-09T02:37:27;15.60;99.90
9237;DHT22;24579;42.810;23.214;2022-09-09T02:39:56;15.80;99.90
9237;DHT22;24579;42.810;23.214;2022-09-09T02:42:23;15.90;99.90
9237;DHT22;24579;42.810;23.214;2022-09-09T02:44:50;15.70;99.90
9237;DHT22;24579;42.810;23.214;2022-09-09T02:47:26;15.70;99.90
9237;DHT22;24579;42.810;23.214;2022-09-09T02:50:04;15.60;99.90
9237;DHT22;24579;42.810;23.214;2022-09-09T02:52:38;15.30;99.90
9237;DHT22;24579;42.810;23.214;2022-09-09T02:55:14;15.20;99.90
9237;DHT22;24579;42.810;23.214;2022-09-09T02:57:43;15.20;99.90
9237;DHT22;24579;42.810;23.214;2022-09-09T03:00:13;15.10;99.90
9237;DHT22;24579;42.810;23.214;2022-09-09T03:02:41;15.30;99.90
9237;DHT22;24579;42.810;23.214;2022-09-09T03:05:08;15.50;99.90
9237;DHT22;24579;42.810;23.214;2022-09-09T03:07:35;15.60;99.90
9237;DHT22;24579;42.810;23.214;2022-09-09T03:10:03;15.60;99.90
9237;DHT22;24579;42.810;23.214;2022-09-09T03:12:30;15.50;99.90
9237;DHT22;24579;42.810;23.214;2022-09-09T03:14:59;15.10;99.90
9237;DHT22;24579;42.810;23.214;2022-09-09T03:17:26;15.10;99.90
9237;DHT22;24579;42.810;23.214;2022-09-09T03:19:54;15.20;99.90
9237;DHT22;24579;42.810;23.214;2022-09-09T03:22:23;15.30;99.90
9237;DHT22;24579;42.810;23.214;2022-09-09T03:24:51;15.30;99.90
9237;DHT22;24579;42.810;23.214;2022-09-09T03:27:18;15.20;99.90
9237;DHT22;24579;42.810;23.214;2022-09-09T03:29:45;15.10;99.90
9237;DHT22;24579;42.810;23.214;2022-09-09T03:32:13;15.00;99.90
9237;DHT22;24579;42.810;23.214;2022-09-09T03:34:43;15.10;99.90
9237;DHT22;24579;42.810;23.214;2022-09-09T03:37:11;15.10;99.90
9237;DHT22;24579;42.810;23.214;2022-09-09T03:39:38;15.10;99.90
9237;DHT22;24579;42.810;23.214;2022-09-09T03:42:05;15.10;99.90
9237;DHT22;24579;42.810;23.214;2022-09-09T03:44:32;14.60;99.90
9237;DHT22;24579;42.810;23.214;2022-09-09T03:46:59;14.80;99.90
9237;DHT22;24579;42.810;23.214;2022-09-09T03:49:26;14.90;99.90
9237;DHT22;24579;42.810;23.214;2022-09-09T03:51:54;14.70;99.90
9237;DHT22;24579;42.810;23.214;2022-09-09T03:54:23;14.90;99.90
9237;DHT22;24579;42.810;23.214;2022-09-09T03:56:50;15.00;99.90
9237;DHT22;24579;42.810;23.214;2022-09-09T03:59:17;14.80;99.90
9237;DHT22;24579;42.810;23.214;2022-09-09T04:01:44;14.70;99.90
9237;DHT22;24579;42.810;23.214;2022-09-09T04:04:12;14.90;99.90
9237;DHT22;24579;42.810;23.214;2022-09-09T04:06:39;15.10;99.90
9237;DHT22;24579;42.810;23.214;2022-09-09T04:09:06;15.20;99.90
9237;DHT22;24579;42.810;23.214;2022-09-09T04:11:34;15.20;99.90
9237;DHT22;24579;42.810;23.214;2022-09-09T04:14:02;15.30;99.90
9237;DHT22;24579;42.810;23.214;2022-09-09T04:16:29;15.20;99.90
9237;DHT22;24579;42.810;23.214;2022-09-09T04:18:56;14.90;99.90
9237;DHT22;24579;42.810;23.214;2022-09-09T04:21:23;14.90;99.90
9237;DHT22;24579;42.810;23.214;2022-09-09T04:23:50;14.80;99.90
9237;DHT22;24579;42.810;23.214;2022-09-09T04:26:18;14.90;99.90
9237;DHT22;24579;42.810;23.214;2022-09-09T04:28:47;14.90;99.90
9237;DHT22;24579;42.810;23.214;2022-09-09T04:31:16;14.60;99.90
9237;DHT22;24579;42.810;23.214;2022-09-09T04:33:44;14.70;99.90
9237;DHT22;24579;42.810;23.214;2022-09-09T04:36:12;14.80;99.90
9237;DHT22;24579;42.810;23.214;2022-09-09T04:38:39;15.00;99.90
9237;DHT22;24579;42.810;23.214;2022-09-09T04:41:06;14.60;99.90
9237;DHT22;24579;42.810;23.214;2022-09-09T04:43:37;14.50;99.90
9237;DHT22;24579;42.810;23.214;2022-09-09T04:46:05;14.80;99.90
9237;DHT22;24579;42.810;23.214;2022-09-09T04:48:33;15.00;99.90
9237;DHT22;24579;42.810;23.214;2022-09-09T04:51:01;15.20;99.90
9237;DHT22;24579;42.810;23.214;2022-09-09T04:53:29;15.40;99.90
9237;DHT22;24579;42.810;23.214;2022-09-09T04:56:02;15.30;99.90
9237;DHT22;24579;42.810;23.214;2022-09-09T04:58:29;15.60;99.90
9237;DHT22;24579;42.810;23.214;2022-09-09T05:01:05;15.50;99.90
9237;DHT22;24579;42.810;23.214;2022-09-09T05:03:32;15.40;99.90
9237;DHT22;24579;42.810;23.214;2022-09-09T05:06:04;15.60;99.90
9237;DHT22;24579;42.810;23.214;2022-09-09T05:08:31;15.70;99.90
9237;DHT22;24579;42.810;23.214;2022-09-09T05:10:58;15.50;99.90
9237;DHT22;24579;42.810;23.214;2022-09-09T05:13:25;15.40;99.90
9237;DHT22;24579;42.810;23.214;2022-09-09T05:15:53;15.40;99.90
9237;DHT22;24579;42.810;23.214;2022-09-09T05:18:22;15.50;99.90
9237;DHT22;24579;42.810;23.214;2022-09-09T05:20:49;15.80;99.90
9237;DHT22;24579;42.810;23.214;2022-09-09T05:23:16;16.20;99.90
9237;DHT22;24579;42.810;23.214;2022-09-09T05:25:43;16.40;99.90
9237;DHT22;24579;42.810;23.214;2022-09-09T05:28:12;16.40;99.90
9237;DHT22;24579;42.810;23.214;2022-09-09T05:30:39;16.40;99.90
9237;DHT22;24579;42.810;23.214;2022-09-09T05:33:06;16.40;99.90
9237;DHT22;24579;42.810;23.214;2022-09-09T05:35:36;16.60;99.90
9237;DHT22;24579;42.810;23.214;2022-09-09T05:38:03;16.80;99.90
9237;DHT22;24579;42.810;23.214;2022-09-09T05:40:30;17.00;99.90
9237;DHT22;24579;42.810;23.214;2022-09-09T05:43:00;17.30;99.90
9237;DHT22;24579;42.810;23.214;2022-09-09T05:45:27;17.40;99.90
9237;DHT22;24579;42.810;23.214;2022-09-09T05:47:54;17.50;99.90
9237;DHT22;24579;42.810;23.214;2022-09-09T05:50:21;17.70;99.90
9237;DHT22;24579;42.810;23.214;2022-09-09T05:52:49;17.80;99.90
9237;DHT22;24579;42.810;23.214;2022-09-09T05:55:16;18.00;99.90
9237;DHT22;24579;42.810;23.214;2022-09-09T05:57:48;18.30;99.90
9237;DHT22;24579;42.810;23.214;2022-09-09T06:00:17;18.50;99.90
9237;DHT22;24579;42.810;23.214;2022-09-09T06:02:50;18.80;99.90
9237;DHT22;24579;42.810;23.214;2022-09-09T06:05:18;18.90;99.90
9237;DHT22;24579;42.810;23.214;2022-09-09T06:07:45;18.90;99.90
9237;DHT22;24579;42.810;23.214;2022-09-09T06:10:14;19.10;99.90
9237;DHT22;24579;42.810;23.214;2022-09-09T06:12:41;19.00;99.90
9237;DHT22;24579;42.810;23.214;2022-09-09T06:15:08;19.20;99.90
9237;DHT22;24579;42.810;23.214;2022-09-09T06:17:35;19.10;99.90
9237;DHT22;24579;42.810;23.214;2022-09-09T06:20:05;19.10;99.90
9237;DHT22;24579;42.810;23.214;2022-09-09T06:22:32;19.40;99.90
9237;DHT22;24579;42.810;23.214;2022-09-09T06:24:59;19.60;99.90
9237;DHT22;24579;42.810;23.214;2022-09-09T06:27:28;19.70;99.90
9237;DHT22;24579;42.810;23.214;2022-09-09T06:29:55;19.90;99.90
9237;DHT22;24579;42.810;23.214;2022-09-09T06:32:22;20.20;99.90
9237;DHT22;24579;42.810;23.214;2022-09-09T06:34:49;20.50;99.90
9237;DHT22;24579;42.810;23.214;2022-09-09T06:37:16;20.60;99.90
9237;DHT22;24579;42.810;23.214;2022-09-09T06:39:43;20.70;99.30
9237;DHT22;24579;42.810;23.214;2022-09-09T06:42:10;20.90;99.60
9237;DHT22;24579;42.810;23.214;2022-09-09T06:44:38;21.00;97.80
9237;DHT22;24579;42.810;23.214;2022-09-09T06:47:05;21.10;96.80
9237;DHT22;24579;42.810;23.214;2022-09-09T06:49:32;21.00;96.30
9237;DHT22;24579;42.810;23.214;2022-09-09T06:52:00;21.00;95.40
9237;DHT22;24579;42.810;23.214;2022-09-09T06:54:27;21.30;95.50
9237;DHT22;24579;42.810;23.214;2022-09-09T06:56:54;21.20;94.00
9237;DHT22;24579;42.810;23.214;2022-09-09T06:59:21;21.20;94.40
9237;DHT22;24579;42.810;23.214;2022-09-09T07:01:50;21.30;93.90
9237;DHT22;24579;42.810;23.214;2022-09-09T07:04:17;21.30;93.40
9237;DHT22;24579;42.810;23.214;2022-09-09T07:06:45;21.50;94.20
9237;DHT22;24579;42.810;23.214;2022-09-09T07:09:14;21.80;92.80
9237;DHT22;24579;42.810;23.214;2022-09-09T07:11:43;22.10;92.40
9237;DHT22;24579;42.810;23.214;2022-09-09T07:14:11;22.20;91.70
9237;DHT22;24579;42.810;23.214;2022-09-09T07:16:39;22.40;91.50
9237;DHT22;24579;42.810;23.214;2022-09-09T07:19:09;22.60;90.90
9237;DHT22;24579;42.810;23.214;2022-09-09T07:21:36;22.60;89.40
9237;DHT22;24579;42.810;23.214;2022-09-09T07:24:03;22.60;88.70
9237;DHT22;24579;42.810;23.214;2022-09-09T07:26:33;22.80;88.80
9237;DHT22;24579;42.810;23.214;2022-09-09T07:29:00;22.70;87.10
9237;DHT22;24579;42.810;23.214;2022-09-09T07:31:29;23.10;86.70
9237;DHT22;24579;42.810;23.214;2022-09-09T07:33:57;23.00;86.50
9237;DHT22;24579;42.810;23.214;2022-09-09T07:36:28;23.40;85.00
9237;DHT22;24579;42.810;23.214;2022-09-09T07:38:56;23.70;85.20
9237;DHT22;24579;42.810;23.214;2022-09-09T07:41:25;23.80;84.20
9237;DHT22;24579;42.810;23.214;2022-09-09T07:43:53;24.00;81.50
9237;DHT22;24579;42.810;23.214;2022-09-09T07:46:24;24.30;82.70
9237;DHT22;24579;42.810;23.214;2022-09-09T07:48:52;24.40;79.10
9237;DHT22;24579;42.810;23.214;2022-09-09T07:51:22;24.00;80.00
9237;DHT22;24579;42.810;23.214;2022-09-09T07:53:53;24.50;82.00
9237;DHT22;24579;42.810;23.214;2022-09-09T07:56:21;24.50;77.60
9237;DHT22;24579;42.810;23.214;2022-09-09T07:58:49;24.40;77.50
9237;DHT22;24579;42.810;23.214;2022-09-09T08:01:18;24.40;77.50
9237;DHT22;24579;42.810;23.214;2022-09-09T08:03:47;24.50;77.30
9237;DHT22;24579;42.810;23.214;2022-09-09T08:06:18;24.60;76.40
9237;DHT22;24579;42.810;23.214;2022-09-09T08:08:45;24.40;77.10
9237;DHT22;24579;42.810;23.214;2022-09-09T08:11:18;24.80;78.40
9237;DHT22;24579;42.810;23.214;2022-09-09T08:13:45;25.30;78.20
9237;DHT22;24579;42.810;23.214;2022-09-09T08:16:14;25.40;77.20
9237;DHT22;24579;42.810;23.214;2022-09-09T08:18:42;25.60;74.60
9237;DHT22;24579;42.810;23.214;2022-09-09T08:21:13;25.10;72.10
9237;DHT22;24579;42.810;23.214;2022-09-09T08:23:40;25.30;74.30
9237;DHT22;24579;42.810;23.214;2022-09-09T08:26:11;25.40;74.80
9237;DHT22;24579;42.810;23.214;2022-09-09T08:28:40;25.10;73.00
9237;DHT22;24579;42.810;23.214;2022-09-09T08:31:10;24.60;73.40
9237;DHT22;24579;42.810;23.214;2022-09-09T08:33:37;24.40;74.90
9237;DHT22;24579;42.810;23.214;2022-09-09T08:36:06;24.70;76.10
9237;DHT22;24579;42.810;23.214;2022-09-09T08:38:34;24.90;75.00
9237;DHT22;24579;42.810;23.214;2022-09-09T08:44:07;25.00;75.00
9237;DHT22;24579;42.810;23.214;2022-09-09T08:46:44;24.90;73.70
9237;DHT22;24579;42.810;23.214;2022-09-09T08:49:25;24.70;73.60
9237;DHT22;24579;42.810;23.214;2022-09-09T08:51:57;24.80;74.30
9237;DHT22;24579;42.810;23.214;2022-09-09T08:54:25;24.90;75.60
9237;DHT22;24579;42.810;23.214;2022-09-09T08:56:56;25.40;75.60
9237;DHT22;24579;42.810;23.214;2022-09-09T08:59:24;25.70;73.00
9237;DHT22;24579;42.810;23.214;2022-09-09T09:01:59;25.80;71.40
9237;DHT22;24579;42.810;23.214;2022-09-09T09:04:38;25.90;71.50
9237;DHT22;24579;42.810;23.214;2022-09-09T09:07:18;25.90;70.70
9237;DHT22;24579;42.810;23.214;2022-09-09T09:09:57;26.30;71.00
9237;DHT22;24579;42.810;23.214;2022-09-09T09:12:28;26.40;71.80
9237;DHT22;24579;42.810;23.214;2022-09-09T09:14:56;26.20;71.20
9237;DHT22;24579;42.810;23.214;2022-09-09T09:17:27;25.70;71.80
9237;DHT22;24579;42.810;23.214;2022-09-09T09:19:57;25.70;73.20
9237;DHT22;24579;42.810;23.214;2022-09-09T09:22:32;25.90;73.50
9237;DHT22;24579;42.810;23.214;2022-09-09T09:25:05;26.00;73.20
9237;DHT22;24579;42.810;23.214;2022-09-09T09:27:40;25.70;73.00
9237;DHT22;24579;42.810;23.214;2022-09-09T09:30:17;26.00;73.80
9237;DHT22;24579;42.810;23.214;2022-09-09T09:32:55;26.60;72.90
9237;DHT22;24579;42.810;23.214;2022-09-09T09:35:22;26.80;73.90
9237;DHT22;24579;42.810;23.214;2022-09-09T09:37:50;27.00;76.00
9237;DHT22;24579;42.810;23.214;2022-09-09T09:40:19;27.00;73.80
9237;DHT22;24579;42.810;23.214;2022-09-09T09:42:52;26.60;71.40
9237;DHT22;24579;42.810;23.214;2022-09-09T09:45:31;26.40;73.80
9237;DHT22;24579;42.810;23.214;2022-09-09T09:48:00;26.20;74.30
9237;DHT22;24579;42.810;23.214;2022-09-09T09:50:28;25.80;73.30
9237;DHT22;24579;42.810;23.214;2022-09-09T09:52:56;25.60;75.40
9237;DHT22;24579;42.810;23.214;2022-09-09T09:55:24;25.10;76.50
9237;DHT22;24579;42.810;23.214;2022-09-09T09:57:53;25.40;76.50
9237;DHT22;24579;42.810;23.214;2022-09-09T10:00:21;25.40;74.00
9237;DHT22;24579;42.810;23.214;2022-09-09T10:02:51;25.40;74.60
9237;DHT22;24579;42.810;23.214;2022-09-09T10:05:20;25.20;74.70
9237;DHT22;24579;42.810;23.214;2022-09-09T10:08:00;25.10;77.40
9237;DHT22;24579;42.810;23.214;2022-09-09T10:10:39;25.10;80.20
9237;DHT22;24579;42.810;23.214;2022-09-09T10:13:13;25.10;81.20
9237;DHT22;24579;42.810;23.214;2022-09-09T10:15:50;24.80;81.60
9237;DHT22;24579;42.810;23.214;2022-09-09T10:18:36;25.00;82.00
9237;DHT22;24579;42.810;23.214;2022-09-09T10:21:13;24.80;80.10
9237;DHT22;24579;42.810;23.214;2022-09-09T10:23:57;24.60;81.90
9237;DHT22;24579;42.810;23.214;2022-09-09T10:26:35;24.50;81.50
9237;DHT22;24579;42.810;23.214;2022-09-09T10:29:20;24.40;83.20
9237;DHT22;24579;42.810;23.214;2022-09-09T10:31:54;24.90;84.00
9237;DHT22;24579;42.810;23.214;2022-09-09T10:34:41;24.90;84.10
9237;DHT22;24579;42.810;23.214;2022-09-09T10:37:24;24.90;82.30
9237;DHT22;24579;42.810;23.214;2022-09-09T10:39:59;24.60;82.50
9237;DHT22;24579;42.810;23.214;2022-09-09T10:42:31;24.60;84.60
9237;DHT22;24579;42.810;23.214;2022-09-09T10:45:07;24.50;83.20
9237;DHT22;24579;42.810;23.214;2022-09-09T10:47:53;24.70;84.60
9237;DHT22;24579;42.810;23.214;2022-09-09T10:50:41;24.70;84.60
9237;DHT22;24579;42.810;23.214;2022-09-09T10:53:16;24.50;85.30
9237;DHT22;24579;42.810;23.214;2022-09-09T10:55:51;24.40;86.70
9237;DHT22;24579;42.810;23.214;2022-09-09T10:58:24;24.30;87.90
9237;DHT22;24579;42.810;23.214;2022-09-09T11:00:54;24.40;87.80
9237;DHT22;24579;42.810;23.214;2022-09-09T11:03:25;24.50;88.10
9237;DHT22;24579;42.810;23.214;2022-09-09T11:05:57;24.70;88.00
9237;DHT22;24579;42.810;23.214;2022-09-09T11:08:29;24.70;86.90
9237;DHT22;24579;42.810;23.214;2022-09-09T11:11:01;25.00;86.90
9237;DHT22;24579;42.810;23.214;2022-09-09T11:13:35;25.20;86.20
9237;DHT22;24579;42.810;23.214;2022-09-09T11:16:22;25.00;85.70
9237;DHT22;24579;42.810;23.214;2022-09-09T11:18:55;25.20;87.30
9237;DHT22;24579;42.810;23.214;2022-09-09T11:21:28;25.50;86.60
9237;DHT22;24579;42.810;23.214;2022-09-09T11:23:59;25.30;86.40
9237;DHT22;24579;42.810;23.214;2022-09-09T11:26:31;25.40;86.00
9237;DHT22;24579;42.810;23.214;2022-09-09T11:29:13;25.40;86.10
9237;DHT22;24579;42.810;23.214;2022-09-09T11:31:58;25.90;84.60
9237;DHT22;24579;42.810;23.214;2022-09-09T11:34:39;25.90;83.90
9237;DHT22;24579;42.810;23.214;2022-09-09T11:37:21;25.80;84.70
9237;DHT22;24579;42.810;23.214;2022-09-09T11:40:09;25.90;85.80
9237;DHT22;24579;42.810;23.214;2022-09-09T11:42:41;26.10;86.50
9237;DHT22;24579;42.810;23.214;2022-09-09T11:45:10;26.20;85.20
9237;DHT22;24579;42.810;23.214;2022-09-09T11:47:38;25.80;87.90
9237;DHT22;24579;42.810;23.214;2022-09-09T11:50:29;26.10;88.90
9237;DHT22;24579;42.810;23.214;2022-09-09T11:53:15;26.40;88.00
9237;DHT22;24579;42.810;23.214;2022-09-09T11:55:45;26.20;89.50
9237;DHT22;24579;42.810;23.214;2022-09-09T11:58:17;26.50;90.50
9237;DHT22;24579;42.810;23.214;2022-09-09T12:00:46;27.10;86.80
9237;DHT22;24579;42.810;23.214;2022-09-09T12:03:32;27.30;86.00
9237;DHT22;24579;42.810;23.214;2022-09-09T12:06:11;27.20;83.50
9237;DHT22;24579;42.810;23.214;2022-09-09T12:08:43;27.80;84.20
9237;DHT22;24579;42.810;23.214;2022-09-09T12:11:12;27.60;81.60
9237;DHT22;24579;42.810;23.214;2022-09-09T12:13:53;28.00;81.60
9237;DHT22;24579;42.810;23.214;2022-09-09T12:16:32;28.20;79.50
9237;DHT22;24579;42.810;23.214;2022-09-09T12:19:13;28.50;81.60
9237;DHT22;24579;42.810;23.214;2022-09-09T12:21:45;28.80;79.00
9237;DHT22;24579;42.810;23.214;2022-09-09T12:24:21;29.10;77.90
9237;DHT22;24579;42.810;23.214;2022-09-09T12:26:57;29.20;77.20
9237;DHT22;24579;42.810;23.214;2022-09-09T12:29:32;29.50;75.40
9237;DHT22;24579;42.810;23.214;2022-09-09T12:32:07;30.30;72.90
9237;DHT22;24579;42.810;23.214;2022-09-09T12:34:41;29.70;70.60
9237;DHT22;24579;42.810;23.214;2022-09-09T12:37:15;30.40;71.30
9237;DHT22;24579;42.810;23.214;2022-09-09T12:39:50;30.30;72.90
9237;DHT22;24579;42.810;23.214;2022-09-09T12:42:19;29.70;71.60
9237;DHT22;24579;42.810;23.214;2022-09-09T12:44:55;29.10;72.70
9237;DHT22;24579;42.810;23.214;2022-09-09T12:47:26;29.30;74.20
9237;DHT22;24579;42.810;23.214;2022-09-09T12:49:53;29.00;76.60
9237;DHT22;24579;42.810;23.214;2022-09-09T12:52:26;28.60;74.20
9237;DHT22;24579;42.810;23.214;2022-09-09T12:54:57;28.20;75.90
9237;DHT22;24579;42.810;23.214;2022-09-09T12:57:26;28.80;76.20
9237;DHT22;24579;42.810;23.214;2022-09-09T13:00:06;28.90;73.90
9237;DHT22;24579;42.810;23.214;2022-09-09T13:02:33;29.20;73.30
9237;DHT22;24579;42.810;23.214;2022-09-09T13:05:08;28.80;74.60
9237;DHT22;24579;42.810;23.214;2022-09-09T13:07:39;28.80;73.60
9237;DHT22;24579;42.810;23.214;2022-09-09T13:10:11;28.50;76.20
9237;DHT22;24579;42.810;23.214;2022-09-09T13:12:38;28.40;76.60
9237;DHT22;24579;42.810;23.214;2022-09-09T13:15:13;28.10;76.90
9237;DHT22;24579;42.810;23.214;2022-09-09T13:17:41;28.10;75.40
9237;DHT22;24579;42.810;23.214;2022-09-09T13:20:17;27.90;75.00
9237;DHT22;24579;42.810;23.214;2022-09-09T13:22:44;27.70;75.10
9237;DHT22;24579;42.810;23.214;2022-09-09T13:25:21;28.00;75.30
9237;DHT22;24579;42.810;23.214;2022-09-09T13:27:53;27.90;75.60
9237;DHT22;24579;42.810;23.214;2022-09-09T13:30:23;27.50;74.50
9237;DHT22;24579;42.810;23.214;2022-09-09T13:33:05;27.20;75.70
9237;DHT22;24579;42.810;23.214;2022-09-09T13:35:33;26.80;76.80
9237;DHT22;24579;42.810;23.214;2022-09-09T13:38:07;26.80;76.70
9237;DHT22;24579;42.810;23.214;2022-09-09T13:40:37;26.70;77.30
9237;DHT22;24579;42.810;23.214;2022-09-09T13:43:04;26.70;78.20
9237;DHT22;24579;42.810;23.214;2022-09-09T13:45:31;26.90;78.90
9237;DHT22;24579;42.810;23.214;2022-09-09T13:48:09;26.80;78.20
9237;DHT22;24579;42.810;23.214;2022-09-09T13:50:36;26.60;78.70
9237;DHT22;24579;42.810;23.214;2022-09-09T13:53:03;26.70;78.70
9237;DHT22;24579;42.810;23.214;2022-09-09T13:55:30;26.60;78.00
9237;DHT22;24579;42.810;23.214;2022-09-09T13:58:00;26.90;77.50
9237;DHT22;24579;42.810;23.214;2022-09-09T14:00:30;26.80;76.00
9237;DHT22;24579;42.810;23.214;2022-09-09T14:02:57;26.60;77.50
9237;DHT22;24579;42.810;23.214;2022-09-09T14:05:27;26.50;76.60
9237;DHT22;24579;42.810;23.214;2022-09-09T14:07:54;26.60;78.80
9237;DHT22;24579;42.810;23.214;2022-09-09T14:10:21;26.70;78.10
9237;DHT22;24579;42.810;23.214;2022-09-09T14:12:48;27.00;77.60
9237;DHT22;24579;42.810;23.214;2022-09-09T14:15:16;27.10;77.20
9237;DHT22;24579;42.810;23.214;2022-09-09T14:17:43;27.20;77.50
9237;DHT22;24579;42.810;23.214;2022-09-09T14:20:10;27.00;78.50
9237;DHT22;24579;42.810;23.214;2022-09-09T14:22:41;26.80;78.20
9237;DHT22;24579;42.810;23.214;2022-09-09T14:25:09;26.70;80.60
9237;DHT22;24579;42.810;23.214;2022-09-09T14:27:36;26.70;79.70
9237;DHT22;24579;42.810;23.214;2022-09-09T14:30:05;27.80;76.50
9237;DHT22;24579;42.810;23.214;2022-09-09T14:32:34;28.50;75.40
9237;DHT22;24579;42.810;23.214;2022-09-09T14:35:01;28.40;74.50
9237;DHT22;24579;42.810;23.214;2022-09-09T14:37:28;29.00;72.70
9237;DHT22;24579;42.810;23.214;2022-09-09T14:39:56;29.90;69.20
9237;DHT22;24579;42.810;23.214;2022-09-09T14:42:23;28.90;68.50
9237;DHT22;24579;42.810;23.214;2022-09-09T14:44:51;28.80;70.20
9237;DHT22;24579;42.810;23.214;2022-09-09T14:47:18;28.40;70.60
9237;DHT22;24579;42.810;23.214;2022-09-09T14:49:46;28.10;71.10
9237;DHT22;24579;42.810;23.214;2022-09-09T14:52:15;28.10;72.10
9237;DHT22;24579;42.810;23.214;2022-09-09T14:54:43;28.40;72.00
9237;DHT22;24579;42.810;23.214;2022-09-09T14:57:10;28.60;72.40
9237;DHT22;24579;42.810;23.214;2022-09-09T14:59:37;28.30;71.60
9237;DHT22;24579;42.810;23.214;2022-09-09T15:02:04;28.00;73.10
9237;DHT22;24579;42.810;23.214;2022-09-09T15:04:31;27.90;73.60
9237;DHT22;24579;42.810;23.214;2022-09-09T15:07:00;27.10;75.90
9237;DHT22;24579;42.810;23.214;2022-09-09T15:09:27;26.70;78.20
9237;DHT22;24579;42.810;23.214;2022-09-09T15:11:54;26.90;79.20
9237;DHT22;24579;42.810;23.214;2022-09-09T15:14:21;27.40;78.30
9237;DHT22;24579;42.810;23.214;2022-09-09T15:16:48;27.40;77.10
9237;DHT22;24579;42.810;23.214;2022-09-09T15:19:14;27.40;78.00
9237;DHT22;24579;42.810;23.214;2022-09-09T15:21:41;27.60;77.30
9237;DHT22;24579;42.810;23.214;2022-09-09T15:24:10;27.50;77.70
9237;DHT22;24579;42.810;23.214;2022-09-09T15:26:39;26.80;78.70
9237;DHT22;24579;42.810;23.214;2022-09-09T15:29:06;26.40;80.50
9237;DHT22;24579;42.810;23.214;2022-09-09T15:31:33;26.60;81.70
9237;DHT22;24579;42.810;23.214;2022-09-09T15:34:02;26.40;81.40
9237;DHT22;24579;42.810;23.214;2022-09-09T15:36:31;26.40;82.30
9237;DHT22;24579;42.810;23.214;2022-09-09T15:38:59;26.40;82.40
9237;DHT22;24579;42.810;23.214;2022-09-09T15:41:28;26.30;83.30
9237;DHT22;24579;42.810;23.214;2022-09-09T15:43:57;26.30;83.70
9237;DHT22;24579;42.810;23.214;2022-09-09T15:46:28;26.10;84.50
9237;DHT22;24579;42.810;23.214;2022-09-09T15:48:57;25.90;85.40
9237;DHT22;24579;42.810;23.214;2022-09-09T15:51:25;26.00;85.50
9237;DHT22;24579;42.810;23.214;2022-09-09T15:53:57;25.80;85.50
9237;DHT22;24579;42.810;23.214;2022-09-09T15:56:25;25.60;86.00